createdAt,value
2023-01-11T00:00:48.111Z,8.20
2023-01-11T00:03:15.193Z,8.20
2023-01-11T00:05:43.841Z,8.20
2023-01-11T00:08:11.700Z,8.20
2023-01-11T00:10:38.606Z,8.20
2023-01-11T00:13:05.703Z,8.20
2023-01-11T00:15:32.473Z,8.20
2023-01-11T00:17:59.230Z,8.20
2023-01-11T00:20:26.055Z,8.10
2023-01-11T00:22:52.912Z,8.10
2023-01-11T00:25:19.904Z,8.10
2023-01-11T00:27:49.305Z,8.10
2023-01-11T00:30:17.252Z,8.10
2023-01-11T00:32:44.191Z,8.10
2023-01-11T00:35:10.848Z,8.10
2023-01-11T00:37:37.640Z,8.10
2023-01-11T00:40:05.024Z,8.10
2023-01-11T00:42:50.232Z,8.10
2023-01-11T00:45:35.491Z,8.20
2023-01-11T00:48:05.866Z,8.20
2023-01-11T00:50:35.804Z,8.20
2023-01-11T00:53:02.808Z,8.30
2023-01-11T00:55:31.814Z,8.30
2023-01-11T00:57:59.280Z,8.30
2023-01-11T01:00:26.266Z,8.30
2023-01-11T01:02:53.329Z,8.40
2023-01-11T01:05:20.389Z,8.30
2023-01-11T01:07:47.207Z,8.30
2023-01-11T01:10:16.206Z,8.30
2023-01-11T01:13:01.667Z,8.30
2023-01-11T01:15:28.993Z,8.30
2023-01-11T01:17:56.428Z,8.40
2023-01-11T01:20:24.247Z,8.40
2023-01-11T01:22:51.510Z,8.40
2023-01-11T01:25:18.455Z,8.40
2023-01-11T01:27:45.202Z,8.40
2023-01-11T01:30:12.621Z,8.40
2023-01-11T01:32:39.671Z,8.50
2023-01-11T01:35:06.999Z,8.50
2023-01-11T01:37:33.685Z,8.50
2023-01-11T01:40:00.331Z,8.50
2023-01-11T01:42:27.089Z,8.40
2023-01-11T01:45:18.364Z,8.50
2023-01-11T01:47:51.034Z,8.60
2023-01-11T01:50:22.546Z,8.60
2023-01-11T01:52:55.386Z,8.60
2023-01-11T01:55:35.815Z,8.60
2023-01-11T01:58:07.030Z,8.60
2023-01-11T02:00:33.894Z,8.60
2023-01-11T02:03:01.758Z,8.70
2023-01-11T02:05:28.609Z,8.70
2023-01-11T02:07:58.782Z,8.70
2023-01-11T02:10:28.103Z,8.70
2023-01-11T02:13:02.060Z,8.80
2023-01-11T02:15:29.241Z,8.80
2023-01-11T02:17:55.941Z,8.80
2023-01-11T02:20:51.901Z,8.80
2023-01-11T02:23:51.160Z,8.70
2023-01-11T02:26:23.831Z,8.90
2023-01-11T02:28:55.933Z,8.80
2023-01-11T02:31:28.499Z,8.80
2023-01-11T02:34:09.900Z,8.90
2023-01-11T02:37:17.734Z,8.90
2023-01-11T02:39:56.196Z,8.90
2023-01-11T02:42:49.968Z,9.00
2023-01-11T02:45:44.285Z,9.00
2023-01-11T02:48:32.178Z,9.00
2023-01-11T02:51:22.394Z,9.00
2023-01-11T02:53:55.834Z,9.00
2023-01-11T02:56:28.264Z,9.10
2023-01-11T02:58:57.805Z,9.10
2023-01-11T03:01:25.584Z,9.10
2023-01-11T03:03:53.607Z,9.20
2023-01-11T03:06:33.132Z,9.20
2023-01-11T03:09:15.529Z,9.20
2023-01-11T03:12:14.903Z,9.20
2023-01-11T03:15:29.548Z,9.20
2023-01-11T03:18:14.167Z,9.20
2023-01-11T03:21:02.507Z,9.10
2023-01-11T03:23:58.113Z,9.10
2023-01-11T03:26:48.079Z,9.10
2023-01-11T03:29:41.118Z,9.00
2023-01-11T03:32:20.027Z,9.00
2023-01-11T03:34:58.544Z,9.00
2023-01-11T03:37:38.063Z,9.00
2023-01-11T03:40:34.819Z,9.00
2023-01-11T03:43:11.782Z,9.10
2023-01-11T03:45:53.848Z,9.10
2023-01-11T03:48:23.863Z,9.10
2023-01-11T03:50:54.043Z,9.10
2023-01-11T03:53:23.902Z,9.20
2023-01-11T03:55:56.839Z,9.20
2023-01-11T03:58:26.130Z,9.30
2023-01-11T04:00:54.599Z,9.30
2023-01-11T04:05:53.413Z,9.30
2023-01-11T04:10:47.490Z,9.30
2023-01-11T04:15:41.196Z,9.30
2023-01-11T04:20:37.566Z,9.30
2023-01-11T04:23:05.619Z,9.30
2023-01-11T04:25:32.545Z,9.30
2023-01-11T04:27:59.808Z,9.30
2023-01-11T04:30:26.550Z,9.30
2023-01-11T04:35:20.416Z,9.20
2023-01-11T04:40:15.184Z,9.40
2023-01-11T04:45:09.307Z,9.40
2023-01-11T04:47:35.969Z,9.40
2023-01-11T04:50:02.642Z,9.40
2023-01-11T04:52:29.348Z,9.30
2023-01-11T04:57:24.528Z,9.40
2023-01-11T05:09:40.779Z,9.50
2023-01-11T05:17:01.947Z,9.60
2023-01-11T05:21:55.668Z,9.60
2023-01-11T05:24:22.508Z,9.60
2023-01-11T05:29:16.968Z,9.70
2023-01-11T05:31:43.784Z,9.80
2023-01-11T05:34:12.914Z,9.80
2023-01-11T05:44:20.065Z,9.80
2023-01-11T05:46:46.735Z,9.80
2023-01-11T05:51:42.205Z,9.80
2023-01-11T05:54:12.802Z,9.90
2023-01-11T05:56:39.690Z,9.90
2023-01-11T06:01:34.460Z,9.80
2023-01-11T06:04:01.168Z,9.80
2023-01-11T06:06:27.854Z,9.80
2023-01-11T06:08:54.545Z,9.80
2023-01-11T06:11:21.266Z,9.80
2023-01-11T06:13:48.083Z,9.80
2023-01-11T06:16:20.675Z,9.80
2023-01-11T06:18:49.165Z,9.90
2023-01-11T06:21:17.026Z,9.90
2023-01-11T06:23:46.820Z,9.90
2023-01-11T06:26:16.513Z,9.80
2023-01-11T06:28:43.919Z,9.90
2023-01-11T06:31:11.270Z,9.90
2023-01-11T06:36:07.820Z,10.00
2023-01-11T06:41:04.840Z,10.00
2023-01-11T06:43:32.578Z,10.00
2023-01-11T06:45:59.939Z,10.00
2023-01-11T06:48:27.458Z,10.00
2023-01-11T06:50:56.820Z,10.00
2023-01-11T06:53:27.458Z,9.90
2023-01-11T06:55:57.408Z,10.00
2023-01-11T06:58:25.512Z,10.00
2023-01-11T07:00:53.927Z,10.00
2023-01-11T07:10:43.757Z,10.00
2023-01-11T07:13:11.754Z,10.00
2023-01-11T07:18:05.836Z,10.00
2023-01-11T07:20:32.728Z,10.00
2023-01-11T07:23:00.854Z,10.00
2023-01-11T07:25:30.717Z,10.00
2023-01-11T07:28:02.389Z,10.10
2023-01-11T07:30:31.063Z,10.10
2023-01-11T07:32:58.872Z,10.10
2023-01-11T07:35:28.096Z,10.10
2023-01-11T07:37:55.977Z,10.10
2023-01-11T07:40:22.691Z,10.10
2023-01-11T07:43:14.207Z,10.20
2023-01-11T07:45:46.489Z,10.10
2023-01-11T07:48:16.536Z,10.10
2023-01-11T07:50:45.133Z,10.10
2023-01-11T07:53:12.873Z,10.10
2023-01-11T07:55:40.345Z,10.10
2023-01-11T07:58:10.600Z,10.10
2023-01-11T08:03:04.590Z,10.10
2023-01-11T08:07:58.466Z,10.20
2023-01-11T08:10:25.228Z,10.30
2023-01-11T08:20:33.432Z,10.50
2023-01-11T08:23:04.971Z,10.50
2023-01-11T08:25:32.741Z,10.60
2023-01-11T08:28:01.036Z,10.60
2023-01-11T08:30:28.297Z,10.60
2023-01-11T08:35:25.645Z,10.60
2023-01-11T08:45:16.854Z,10.60
2023-01-11T08:47:43.502Z,10.60
2023-01-11T08:50:10.913Z,10.60
2023-01-11T08:52:37.675Z,10.50
2023-01-11T08:55:07.615Z,10.50
2023-01-11T08:57:35.140Z,10.60
2023-01-11T09:00:03.675Z,10.60
2023-01-11T09:02:30.347Z,10.60
2023-01-11T09:04:57.181Z,10.60
2023-01-11T09:07:24.068Z,13.00
2023-01-11T09:09:52.010Z,10.60
2023-01-11T09:12:19.208Z,10.70
2023-01-11T09:14:45.919Z,10.60
2023-01-11T09:17:12.565Z,10.60
2023-01-11T09:19:39.223Z,10.60
2023-01-11T09:22:05.864Z,10.60
2023-01-11T09:24:32.559Z,10.70
2023-01-11T09:27:00.252Z,10.70
2023-01-11T09:29:27.042Z,10.60
2023-01-11T09:31:53.850Z,10.70
2023-01-11T09:34:21.057Z,10.90
2023-01-11T09:36:49.006Z,10.70
2023-01-11T09:39:18.798Z,10.70
2023-01-11T09:42:05.397Z,10.80
2023-01-11T09:44:35.762Z,10.80
2023-01-11T09:47:17.114Z,10.70
2023-01-11T09:49:50.902Z,10.80
2023-01-11T09:52:51.150Z,10.80
2023-01-11T09:55:23.145Z,10.80
2023-01-11T09:58:11.881Z,10.80
2023-01-11T10:01:15.189Z,10.80
2023-01-11T10:04:13.894Z,10.80
2023-01-11T10:07:14.305Z,10.80
2023-01-11T10:18:37.593Z,10.90
2023-01-11T10:22:02.058Z,10.90
2023-01-11T10:24:37.409Z,10.90
2023-01-11T10:27:12.432Z,10.90
2023-01-11T10:30:04.056Z,10.90
2023-01-11T10:32:48.019Z,10.90
2023-01-11T10:35:58.809Z,10.90
2023-01-11T10:38:50.874Z,10.90
2023-01-11T10:41:33.160Z,10.90
2023-01-11T10:44:09.831Z,10.90
2023-01-11T10:46:44.443Z,11.00
2023-01-11T10:49:25.618Z,11.00
2023-01-11T10:51:55.541Z,11.00
2023-01-11T10:54:33.262Z,11.10
2023-01-11T10:57:20.408Z,11.10
2023-01-11T11:00:24.420Z,11.10
2023-01-11T11:02:51.047Z,11.00
2023-01-11T11:05:40.784Z,10.90
2023-01-11T11:08:17.342Z,10.90
2023-01-11T11:10:50.225Z,10.70
2023-01-11T11:13:19.900Z,10.70
2023-01-11T11:16:01.414Z,10.60
2023-01-11T11:18:28.320Z,10.50
2023-01-11T11:21:00.358Z,10.40
2023-01-11T11:23:28.643Z,10.30
2023-01-11T11:25:58.692Z,10.30
2023-01-11T11:28:31.258Z,10.30
2023-01-11T11:31:01.294Z,10.20
2023-01-11T11:33:39.074Z,10.20
2023-01-11T11:36:08.846Z,10.10
2023-01-11T11:38:41.579Z,10.10
2023-01-11T11:41:13.801Z,10.10
2023-01-11T11:43:45.581Z,10.10
2023-01-11T11:46:19.332Z,10.00
2023-01-11T11:49:18.634Z,9.90
2023-01-11T11:51:47.787Z,9.00
2023-01-11T11:54:25.545Z,9.90
2023-01-11T11:56:53.388Z,9.90
2023-01-11T11:59:22.518Z,9.90
2023-01-11T12:02:01.566Z,9.90
2023-01-11T12:04:48.729Z,9.70
2023-01-11T12:07:17.604Z,10.00
2023-01-11T12:10:10.336Z,9.90
2023-01-11T12:12:49.744Z,9.80
2023-01-11T12:15:16.414Z,9.60
2023-01-11T12:20:22.250Z,9.90
2023-01-11T12:22:50.047Z,10.10
2023-01-11T12:25:26.659Z,10.10
2023-01-11T12:28:07.810Z,10.10
2023-01-11T12:30:46.362Z,10.00
2023-01-11T12:36:01.274Z,10.00
2023-01-11T12:39:00.842Z,10.40
2023-01-11T12:41:47.463Z,10.20
2023-01-11T12:46:59.240Z,10.20
2023-01-11T12:49:35.051Z,10.20
2023-01-11T12:52:22.344Z,9.90
2023-01-11T12:55:13.006Z,10.20
2023-01-11T12:58:20.049Z,10.00
2023-01-11T13:00:52.357Z,10.30
2023-01-11T13:04:06.450Z,10.40
2023-01-11T13:07:08.420Z,10.30
2023-01-11T13:10:06.326Z,10.40
2023-01-11T13:12:47.808Z,10.40
2023-01-11T13:15:23.502Z,10.50
2023-01-11T13:18:14.645Z,10.50
2023-01-11T13:21:00.759Z,10.80
2023-01-11T13:23:39.138Z,10.70
2023-01-11T13:26:25.537Z,10.70
2023-01-11T13:29:01.370Z,10.60
2023-01-11T13:31:30.111Z,10.50
2023-01-11T13:34:12.524Z,10.30
2023-01-11T13:36:44.072Z,10.70
2023-01-11T13:39:20.895Z,10.50
2023-01-11T13:41:58.046Z,10.60
2023-01-11T13:44:36.957Z,10.80
2023-01-11T13:47:13.223Z,10.50
2023-01-11T13:50:01.080Z,10.80
2023-01-11T13:52:42.557Z,10.60
2023-01-11T13:55:26.732Z,10.70
2023-01-11T13:58:16.517Z,10.50
2023-01-11T14:01:02.118Z,10.90
2023-01-11T14:06:24.635Z,10.90
2023-01-11T14:09:04.438Z,11.00
2023-01-11T14:11:52.292Z,11.10
2023-01-11T14:14:48.271Z,11.30
2023-01-11T14:17:30.378Z,11.10
2023-01-11T14:20:22.596Z,11.20
2023-01-11T14:22:55.294Z,11.00
2023-01-11T14:25:26.855Z,11.10
2023-01-11T14:28:19.648Z,11.00
2023-01-11T14:30:59.027Z,11.00
2023-01-11T14:33:47.248Z,10.80
2023-01-11T14:36:35.520Z,11.30
2023-01-11T14:39:11.509Z,11.20
2023-01-11T14:41:50.740Z,11.10
2023-01-11T14:44:36.250Z,11.10
2023-01-11T14:47:20.648Z,11.00
2023-01-11T14:49:59.410Z,10.90
2023-01-11T14:52:39.526Z,10.80
2023-01-11T14:55:17.674Z,10.70
2023-01-11T14:58:01.363Z,10.60
2023-01-11T15:00:27.982Z,10.80
2023-01-11T15:03:00.539Z,11.00
2023-01-11T15:05:32.953Z,10.50
2023-01-11T15:08:14.979Z,10.60
2023-01-11T15:10:50.434Z,10.60
2023-01-11T15:13:34.611Z,10.60
2023-01-11T15:16:27.958Z,10.90
2023-01-11T15:18:55.398Z,10.50
2023-01-11T15:21:25.965Z,10.50
2023-01-11T15:23:56.502Z,10.50
2023-01-11T15:26:26.503Z,10.50
2023-01-11T15:28:56.135Z,10.20
2023-01-11T15:34:26.817Z,10.20
2023-01-11T15:37:03.548Z,9.80
2023-01-11T15:39:50.273Z,10.00
2023-01-11T15:45:21.312Z,9.90
2023-01-11T15:48:09.010Z,9.70
2023-01-11T15:53:30.400Z,9.50
2023-01-11T15:56:06.033Z,9.30
2023-01-11T15:58:59.904Z,9.50
2023-01-11T16:01:28.576Z,9.40
2023-01-11T16:04:01.210Z,9.40
2023-01-11T16:06:47.238Z,9.40
2023-01-11T16:09:33.633Z,9.50
2023-01-11T16:14:34.935Z,9.50
2023-01-11T16:17:02.910Z,9.70
2023-01-11T16:19:35.544Z,9.30
2023-01-11T16:24:44.993Z,9.30
2023-01-11T16:27:27.542Z,9.40
2023-01-11T16:34:51.985Z,9.50
2023-01-11T16:39:49.098Z,9.70
2023-01-11T16:42:16.045Z,9.70
2023-01-11T16:45:04.225Z,9.70
2023-01-11T16:47:30.963Z,9.60
2023-01-11T16:50:14.366Z,9.70
2023-01-11T16:52:47.379Z,9.70
2023-01-11T16:55:20.834Z,9.70
2023-01-11T16:57:52.518Z,9.70
2023-01-11T17:00:28.882Z,9.60
2023-01-11T17:03:06.455Z,9.60
2023-01-11T17:10:29.660Z,9.40
2023-01-11T17:13:51.996Z,9.30
2023-01-11T17:16:21.710Z,9.30
2023-01-11T17:21:27.039Z,9.20
2023-01-11T17:24:04.352Z,9.10
2023-01-11T17:26:35.127Z,9.00
2023-01-11T17:31:35.947Z,8.90
2023-01-11T17:34:17.126Z,9.00
2023-01-11T17:39:21.788Z,9.00
2023-01-11T17:42:07.219Z,8.90
2023-01-11T17:44:53.114Z,9.00
2023-01-11T17:47:20.709Z,8.90
2023-01-11T17:52:19.423Z,9.00
2023-01-11T17:57:14.133Z,8.90
2023-01-11T18:02:14.494Z,8.70
2023-01-11T18:04:42.967Z,8.60
2023-01-11T18:07:17.632Z,8.60
2023-01-11T18:09:50.587Z,8.70
2023-01-11T18:12:26.011Z,8.60
2023-01-11T18:15:04.785Z,8.70
2023-01-11T18:17:40.044Z,8.60
2023-01-11T18:20:30.182Z,8.50
2023-01-11T18:23:05.087Z,8.50
2023-01-11T18:25:36.983Z,8.40
2023-01-11T18:28:20.966Z,8.40
2023-01-11T18:30:54.198Z,8.40
2023-01-11T18:33:24.437Z,8.40
2023-01-11T18:35:58.187Z,8.40
2023-01-11T18:38:29.035Z,8.40
2023-01-11T18:40:58.390Z,8.40
2023-01-11T18:43:31.331Z,8.40
2023-01-11T18:48:25.743Z,8.30
2023-01-11T18:53:21.281Z,8.40
2023-01-11T18:55:47.968Z,8.20
2023-01-11T19:00:41.857Z,8.20
2023-01-11T19:03:10.212Z,8.20
2023-01-11T19:15:28.264Z,8.30
2023-01-11T19:17:55.011Z,7.90
2023-01-11T19:22:48.976Z,8.20
2023-01-11T19:27:43.369Z,8.20
2023-01-11T19:30:11.972Z,8.00
2023-01-11T19:32:38.767Z,8.10
2023-01-11T19:35:07.423Z,8.10
2023-01-11T19:37:34.796Z,8.20
2023-01-11T19:40:02.496Z,7.90
2023-01-11T19:47:23.637Z,7.90
2023-01-11T19:49:50.493Z,8.00
2023-01-11T19:52:19.231Z,8.10
2023-01-11T19:54:46.789Z,8.00
2023-01-11T19:57:17.877Z,8.00
2023-01-11T20:02:13.016Z,8.00
2023-01-11T20:04:40.262Z,8.00
2023-01-11T20:09:37.543Z,8.20
2023-01-11T20:14:33.894Z,8.40
2023-01-11T20:17:01.073Z,8.40
2023-01-11T20:21:56.013Z,8.50
2023-01-11T20:27:00.623Z,8.20
2023-01-11T20:29:27.775Z,8.30
2023-01-11T20:34:22.069Z,8.10
2023-01-11T20:39:17.422Z,8.10
2023-01-11T20:41:47.470Z,8.00
2023-01-11T20:44:23.759Z,8.10
2023-01-11T20:46:51.956Z,8.20
2023-01-11T20:51:46.798Z,8.40
2023-01-11T20:56:41.757Z,8.50
2023-01-11T21:01:37.461Z,8.30
2023-01-11T21:09:07.792Z,8.40
2023-01-11T21:16:31.723Z,8.60
2023-01-11T21:19:01.017Z,8.70
2023-01-11T21:21:29.448Z,8.60
2023-01-11T21:23:58.496Z,8.80
2023-01-11T21:26:26.440Z,8.90
2023-01-11T21:31:23.012Z,9.20
2023-01-11T21:33:50.324Z,9.00
2023-01-11T21:36:21.681Z,9.00
2023-01-11T21:38:48.602Z,9.10
2023-01-11T21:51:08.165Z,9.00
2023-01-11T21:53:35.225Z,9.10
2023-01-11T22:06:08.995Z,9.40
2023-01-11T22:11:05.223Z,9.40
2023-01-11T22:13:33.330Z,9.40
2023-01-11T22:21:17.018Z,9.30
2023-01-11T22:23:44.610Z,9.30
2023-01-11T22:26:13.977Z,9.30
2023-01-11T22:31:28.911Z,9.30
2023-01-11T22:33:56.526Z,9.20
2023-01-11T22:36:24.900Z,9.30
2023-01-11T22:38:52.230Z,9.20
2023-01-11T22:48:43.267Z,9.50
2023-01-11T22:53:44.669Z,9.50
2023-01-11T22:58:39.521Z,9.60
2023-01-11T23:01:17.205Z,9.60
2023-01-11T23:03:45.265Z,9.50
2023-01-11T23:08:41.950Z,9.70
2023-01-11T23:11:36.489Z,9.70
2023-01-11T23:14:08.468Z,9.60
2023-01-11T23:21:30.292Z,9.60
2023-01-11T23:26:24.368Z,9.80
2023-01-11T23:31:21.839Z,9.70
2023-01-11T23:33:51.389Z,9.80
2023-01-11T23:36:19.394Z,9.70
2023-01-11T23:38:46.391Z,9.70
2023-01-11T23:41:37.119Z,9.60
2023-01-11T23:44:14.454Z,9.60
2023-01-11T23:47:00.594Z,9.60
2023-01-11T23:49:28.455Z,9.60
2023-01-11T23:51:55.771Z,9.50
2023-01-11T23:54:25.487Z,9.50
2023-01-11T23:59:19.193Z,9.50
